CheckWX is a tool to help pilots better visualize weather data.  It is not intended as a substitute for an official pre-flight weather briefing.

07:12:59 UTC

OERY TAF
Riyadh Air Base Airport
Riyadh, Saudi Arabia
TAF OERY 152300Z 1600/1706 28006KT 7000 FEW040 SCT100 BECMG 1606/1608 36008KT

Jun-16@
00:00 UTC

Jun-16 @ 00:00 UTC

Jun-16@
06:00 UTC

Jun-16 @ 06:00 UTC

TAF OERY 152300Z 1600/1706 28006KT 7000 FEW040 SCT100

Expired

Wind
  • 280° at 6 KTS
Cloud Levels
  • Few at 4,000' AGL
  • Scattered at 10,000' AGL

Jun-16@
06:00 UTC

Jun-16 @ 06:00 UTC

Jun-17@
06:00 UTC

Jun-17 @ 06:00 UTC

BECMG 1606/1608 36008KT

Becoming

Becoming Conditions expected by Sun, Jun 16, 2019 @ 08:00 UTC

Wind
  • 360° at 8 KTS
Cloud Levels
  • Few at 4,000' AGL
  • Scattered at 10,000' AGL